Pagina principale
METAR-TAF:

METAR-TAF

Aeroporti :

Base aerea di Aviano

Aviano, Italia

latitudine: 46-02N, longitudine: 012-36E, altezza: 128 m

Osservazione

Il bollettino è stato emesso 21 minuti fa, alle 18:55 UTC
Vento 4 kt da nord/nord-ovest
Temperature 21°C
Umidità 56%
Pressione 1018 hPa
Visibilità 10 km o più
Nubi sparse ad un'altezza di 8000 ft

METAR: LIPA 231855Z 33004KT 9999 SCT080 21/12 Q1018 RMK SCT VIS MIN 9999 WIND THR05 /////KT WIND THR23 /////KT A3008 BLU

Ora: 21:16 (19:16 UTC)

Previsione

Il bollettino è stato emesso 2 ore e 16 minuti fa, alle 17:00 UTC
Previsione valida dal 23 alle 18 UTC al 24 alle 03 UTC
Vento 7 kt da sud/sud-ovest
Visibilità 10 km o più
Nubi sparse ad un'altezza di 5000 ft

TAF: LIPA 231700Z 2318/2403 21007KT 9999 SCT050

Osservazioni e previsioni meteorologiche di più di 4000 aeroporti (messaggi METAR e TAF).

Le stazioni disponibili sono rappresentate dai dischi gialli e rossi sulla carta.

Puntare il mouse per vedere il nome della stazione.

Clicca sopra per visualizzare le osservazioni e previsioni meteorologiche.

Per cambiare la mappa : fare clic sui pulsanti verdi con una croce nera per ingrandire, il pulsante verde con un trattino per diminuire, o sulla freccia verde per le mappe adiacenti.


METAR-TAF: